Time;durP1;ratioP1;P1;durP2;ratioP2;P2;SDS_P1;SDS_P2;PMS_P1;PMS_P2;Temp;Humidity;BMP_temperature;BMP_pressure;BME280_temperature;BME280_humidity;BME280_pressure;Samples;Min_cycle;Max_cycle;Signal;HPM_P1;HPM_P2
2023/07/01 00:02:15;;;;;;;10.43;2.20;;;;;;;;;;5051791;28;20048;-61
2023/07/01 00:04:41;;;;;;;8.97;2.50;;;;;;;;;;5049544;28;20123;-62
2023/07/01 00:07:07;;;;;;;7.20;1.87;;;;;;;;;;5049759;28;20427;-62
2023/07/01 00:09:33;;;;;;;8.03;2.00;;;;;;;;;;5050146;28;20049;-61
2023/07/01 00:11:59;;;;;;;10.40;3.00;;;;;;;;;;5050029;28;20099;-61
2023/07/01 00:14:25;;;;;;;7.10;2.50;;;;;;;;;;5051961;28;20037;-62
2023/07/01 00:16:51;;;;;;;8.07;2.00;;;;;;;;;;5064947;28;20040;-62
2023/07/01 00:19:17;;;;;;;5.10;1.83;;;;;;;;;;5067642;28;20040;-62
2023/07/01 00:21:43;;;;;;;7.97;2.00;;;;;;;;;;5049681;28;20049;-62
2023/07/01 00:24:09;;;;;;;9.50;2.23;;;;;;;;;;5049894;28;20106;-61
2023/07/01 00:26:36;;;;;;;7.40;2.10;;;;;;;;;;5048873;28;20049;-62
2023/07/01 00:29:02;;;;;;;8.17;2.53;;;;;;;;;;5049434;28;20128;-62
2023/07/01 00:31:28;;;;;;;9.73;2.83;;;;;;;;;;5049337;28;20132;-62
2023/07/01 00:33:54;;;;;;;10.27;2.80;;;;;;;;;;5049142;28;20061;-61
2023/07/01 00:36:20;;;;;;;8.97;2.00;;;;;;;;;;5049328;28;20045;-61
2023/07/01 00:38:46;;;;;;;12.43;2.17;;;;;;;;;;5049128;28;20519;-62
2023/07/01 00:41:12;;;;;;;10.90;2.63;;;;;;;;;;5049451;28;20047;-62
2023/07/01 00:43:38;;;;;;;7.97;2.30;;;;;;;;;;5048735;28;20033;-62
2023/07/01 00:46:04;;;;;;;15.23;2.47;;;;;;;;;;5049262;28;20045;-61
2023/07/01 00:48:30;;;;;;;8.80;2.10;;;;;;;;;;5048761;28;20037;-61
2023/07/01 00:50:56;;;;;;;9.17;2.43;;;;;;;;;;5054752;28;20067;-62
2023/07/01 00:53:22;;;;;;;9.93;2.47;;;;;;;;;;5066575;28;20055;-61
2023/07/01 00:55:48;;;;;;;9.77;2.63;;;;;;;;;;5048303;28;20040;-62
2023/07/01 00:58:14;;;;;;;10.80;2.70;;;;;;;;;;5049233;28;20052;-62
2023/07/01 01:00:41;;;;;;;7.20;2.33;;;;;;;;;;5056110;28;20076;-61
2023/07/01 01:03:26;;;;;;;9.63;2.57;;;;;;;;;;5062659;28;20048;-62
2023/07/01 01:06:16;;;;;;;9.10;3.00;;;;;;;;;;5051460;28;20148;-62
2023/07/01 01:08:54;;;;;;;7.60;2.53;;;;;;;;;;5048427;28;20506;-61
2023/07/01 01:11:21;;;;;;;8.50;2.37;;;;;;;;;;5067932;28;20453;-62
2023/07/01 01:13:47;;;;;;;7.37;2.20;;;;;;;;;;5067849;28;20049;-62
2023/07/01 01:16:14;;;;;;;6.70;2.33;;;;;;;;;;5060668;28;20080;-62
2023/07/01 01:18:42;;;;;;;5.57;2.43;;;;;;;;;;5048673;28;20037;-61
2023/07/01 01:21:10;;;;;;;8.97;3.00;;;;;;;;;;5057678;28;20056;-61
2023/07/01 01:23:38;;;;;;;6.30;2.33;;;;;;;;;;5068618;28;20101;-62
2023/07/01 01:26:10;;;;;;;11.57;3.03;;;;;;;;;;5063785;28;20036;-62
2023/07/01 01:28:36;;;;;;;7.20;2.77;;;;;;;;;;5063629;28;20072;-61
2023/07/01 01:31:03;;;;;;;10.20;2.50;;;;;;;;;;5048657;28;20045;-62
2023/07/01 01:33:29;;;;;;;7.40;2.40;;;;;;;;;;5048147;28;20069;-62
2023/07/01 01:36:08;;;;;;;9.60;2.77;;;;;;;;;;5048241;28;20114;-62
2023/07/01 01:38:35;;;;;;;17.20;2.93;;;;;;;;;;5048356;28;20124;-62
2023/07/01 01:41:10;;;;;;;6.63;2.87;;;;;;;;;;5048382;28;20048;-61
2023/07/01 01:43:51;;;;;;;8.13;2.70;;;;;;;;;;5048388;28;20151;-61
2023/07/01 01:46:18;;;;;;;8.47;3.37;;;;;;;;;;5066500;28;20080;-61
2023/07/01 01:48:44;;;;;;;5.80;3.10;;;;;;;;;;5068435;28;20047;-61
2023/07/01 01:51:10;;;;;;;7.10;2.63;;;;;;;;;;5068317;28;20041;-61
2023/07/01 01:53:39;;;;;;;5.63;2.47;;;;;;;;;;5068107;28;20406;-62
2023/07/01 01:56:05;;;;;;;7.53;2.60;;;;;;;;;;5071902;28;20119;-61
2023/07/01 01:58:31;;;;;;;11.23;3.40;;;;;;;;;;5072553;28;20048;-61
2023/07/01 02:00:57;;;;;;;8.23;2.87;;;;;;;;;;5057169;28;20044;-62
2023/07/01 02:03:23;;;;;;;7.37;2.80;;;;;;;;;;5070831;28;20414;-62
2023/07/01 02:05:49;;;;;;;6.77;2.40;;;;;;;;;;5071486;28;20123;-61
2023/07/01 02:08:15;;;;;;;9.27;2.83;;;;;;;;;;5072218;28;20174;-62
2023/07/01 02:10:41;;;;;;;7.50;2.60;;;;;;;;;;5060663;28;20052;-61
2023/07/01 02:13:07;;;;;;;8.30;2.90;;;;;;;;;;5051886;28;20408;-61
2023/07/01 02:15:33;;;;;;;8.23;2.80;;;;;;;;;;5051742;28;20059;-62
2023/07/01 02:17:59;;;;;;;6.97;2.70;;;;;;;;;;5056043;28;20032;-62
2023/07/01 02:20:25;;;;;;;13.60;2.80;;;;;;;;;;5052469;28;20099;-61
2023/07/01 02:22:51;;;;;;;7.33;2.70;;;;;;;;;;5051660;28;20033;-62
2023/07/01 02:25:17;;;;;;;11.37;3.27;;;;;;;;;;5064531;28;20045;-62
2023/07/01 02:27:43;;;;;;;8.07;2.63;;;;;;;;;;5071540;28;20037;-62
2023/07/01 02:30:09;;;;;;;8.90;2.80;;;;;;;;;;5071565;28;20045;-62
2023/07/01 02:32:35;;;;;;;10.83;2.93;;;;;;;;;;5071587;28;20045;-61
2023/07/01 02:35:01;;;;;;;10.00;3.37;;;;;;;;;;5060022;28;20041;-61
2023/07/01 02:37:27;;;;;;;6.23;2.43;;;;;;;;;;5070276;28;20063;-61
2023/07/01 02:39:53;;;;;;;5.60;3.07;;;;;;;;;;5071592;28;20045;-61
2023/07/01 02:42:19;;;;;;;8.03;3.10;;;;;;;;;;5071000;28;20051;-61
2023/07/01 02:44:48;;;;;;;8.70;2.63;;;;;;;;;;5071321;28;20135;-61
2023/07/01 02:47:17;;;;;;;7.50;3.20;;;;;;;;;;5071595;28;20044;-62
2023/07/01 02:49:43;;;;;;;11.97;3.60;;;;;;;;;;5070701;28;20135;-61
2023/07/01 02:52:10;;;;;;;12.47;3.70;;;;;;;;;;5070231;28;20045;-61
2023/07/01 02:54:40;;;;;;;6.17;2.93;;;;;;;;;;5091452;28;20093;-61
2023/07/01 02:57:07;;;;;;;11.47;3.60;;;;;;;;;;5091391;28;20569;-61
2023/07/01 02:59:33;;;;;;;8.60;3.27;;;;;;;;;;5091418;28;20528;-61
2023/07/01 03:01:59;;;;;;;6.27;2.30;;;;;;;;;;5091346;28;20475;-61
2023/07/01 03:04:25;;;;;;;10.87;2.77;;;;;;;;;;5090159;28;20119;-61
2023/07/01 03:06:51;;;;;;;12.07;2.97;;;;;;;;;;5090248;28;20067;-62
2023/07/01 03:09:17;;;;;;;7.60;2.77;;;;;;;;;;5072425;28;20358;-61
2023/07/01 03:11:43;;;;;;;7.23;2.50;;;;;;;;;;5050419;28;20406;-61
2023/07/01 03:14:09;;;;;;;7.83;2.73;;;;;;;;;;5050877;28;20041;-61
2023/07/01 03:16:35;;;;;;;9.60;3.50;;;;;;;;;;5063348;28;20037;-62
2023/07/01 03:19:03;;;;;;;8.63;2.80;;;;;;;;;;5062504;28;20119;-61
2023/07/01 03:21:31;;;;;;;12.77;2.83;;;;;;;;;;5065378;28;20059;-61
2023/07/01 03:23:57;;;;;;;4.87;2.73;;;;;;;;;;5052392;28;20037;-62
2023/07/01 03:26:23;;;;;;;9.33;2.53;;;;;;;;;;5052875;28;20045;-61
2023/07/01 03:28:49;;;;;;;6.33;2.57;;;;;;;;;;5050075;28;20064;-62
2023/07/01 03:31:15;;;;;;;8.43;3.07;;;;;;;;;;5049543;28;20470;-62
2023/07/01 03:33:41;;;;;;;7.03;3.20;;;;;;;;;;5050325;28;20057;-61
2023/07/01 03:36:07;;;;;;;12.60;3.23;;;;;;;;;;5050723;28;20045;-62
2023/07/01 03:38:33;;;;;;;6.00;3.20;;;;;;;;;;5055443;28;20040;-62
2023/07/01 03:40:59;;;;;;;8.37;3.10;;;;;;;;;;5070253;28;20530;-61
2023/07/01 03:43:27;;;;;;;8.83;3.57;;;;;;;;;;5064225;28;20037;-62
2023/07/01 03:45:53;;;;;;;8.43;3.93;;;;;;;;;;5070057;28;20127;-61
2023/07/01 03:48:19;;;;;;;5.70;3.73;;;;;;;;;;5070010;28;20139;-62
2023/07/01 03:50:45;;;;;;;7.03;3.27;;;;;;;;;;5070017;28;20050;-61
2023/07/01 03:53:11;;;;;;;6.97;3.60;;;;;;;;;;5070292;28;20044;-61
2023/07/01 03:55:36;;;;;;;13.10;4.63;;;;;;;;;;5069289;28;20135;-62
2023/07/01 03:58:04;;;;;;;9.43;4.30;;;;;;;;;;5070011;28;20529;-61
2023/07/01 04:00:30;;;;;;;9.57;4.63;;;;;;;;;;5069249;28;20063;-62
2023/07/01 04:03:02;;;;;;;11.97;5.03;;;;;;;;;;5069755;28;20044;-62
2023/07/01 04:05:28;;;;;;;11.67;4.90;;;;;;;;;;5069824;28;20090;-62
2023/07/01 04:07:54;;;;;;;6.43;4.33;;;;;;;;;;5069657;28;20530;-62
2023/07/01 04:10:21;;;;;;;11.03;4.90;;;;;;;;;;5069543;28;20484;-61
2023/07/01 04:12:47;;;;;;;11.57;5.93;;;;;;;;;;5069414;28;20482;-62
2023/07/01 04:15:13;;;;;;;13.43;5.27;;;;;;;;;;5063391;28;20076;-62
2023/07/01 04:17:41;;;;;;;11.73;5.40;;;;;;;;;;5051833;28;20054;-61
2023/07/01 04:20:09;;;;;;;9.23;5.10;;;;;;;;;;5049157;28;20106;-62
2023/07/01 04:22:35;;;;;;;10.30;5.60;;;;;;;;;;5049258;28;20095;-62
2023/07/01 04:25:01;;;;;;;10.57;4.90;;;;;;;;;;5049347;28;20041;-62
2023/07/01 04:27:27;;;;;;;13.77;4.67;;;;;;;;;;5049116;28;20051;-62
2023/07/01 04:29:53;;;;;;;9.57;4.87;;;;;;;;;;5048856;28;20049;-62
2023/07/01 04:32:19;;;;;;;8.50;4.37;;;;;;;;;;5049071;28;20056;-62
2023/07/01 04:34:45;;;;;;;8.53;4.70;;;;;;;;;;5049650;28;20053;-62
2023/07/01 04:37:11;;;;;;;7.87;5.60;;;;;;;;;;5065514;28;20036;-62
2023/07/01 04:39:37;;;;;;;11.87;4.73;;;;;;;;;;5069084;28;20917;-62
2023/07/01 04:42:03;;;;;;;7.37;4.67;;;;;;;;;;5068497;28;20045;-63
2023/07/01 04:44:29;;;;;;;9.50;4.90;;;;;;;;;;5069263;28;20040;-62
2023/07/01 04:46:55;;;;;;;8.23;5.17;;;;;;;;;;5068966;28;20047;-63
2023/07/01 04:49:21;;;;;;;9.07;5.23;;;;;;;;;;5068699;28;20051;-63
2023/07/01 04:51:47;;;;;;;10.23;5.57;;;;;;;;;;5063105;28;20101;-62
2023/07/01 04:54:13;;;;;;;12.70;5.33;;;;;;;;;;5067050;28;20053;-62
2023/07/01 04:56:39;;;;;;;11.90;5.60;;;;;;;;;;5068475;28;20036;-62
2023/07/01 04:59:05;;;;;;;11.60;5.60;;;;;;;;;;5068722;28;20410;-62
2023/07/01 05:01:31;;;;;;;9.30;5.80;;;;;;;;;;5068400;28;20117;-63
2023/07/01 05:03:57;;;;;;;13.97;5.97;;;;;;;;;;5068465;28;20466;-63
2023/07/01 05:06:23;;;;;;;10.47;5.07;;;;;;;;;;5054593;28;20612;-63
2023/07/01 05:08:49;;;;;;;13.73;6.37;;;;;;;;;;5059426;28;20504;-62
2023/07/01 05:11:15;;;;;;;10.47;5.27;;;;;;;;;;5060770;28;20041;-62
2023/07/01 05:13:41;;;;;;;8.50;4.40;;;;;;;;;;5047891;28;20083;-62
2023/07/01 05:16:07;;;;;;;13.07;5.23;;;;;;;;;;5048641;28;20045;-62
2023/07/01 05:18:33;;;;;;;9.23;4.23;;;;;;;;;;5048934;28;20406;-62
2023/07/01 05:20:59;;;;;;;10.97;5.13;;;;;;;;;;5049088;28;20041;-62
2023/07/01 05:23:25;;;;;;;13.57;5.30;;;;;;;;;;5049011;28;20049;-62
2023/07/01 05:25:51;;;;;;;11.90;4.33;;;;;;;;;;5050681;28;20495;-62
2023/07/01 05:28:17;;;;;;;10.23;4.47;;;;;;;;;;5052158;28;20045;-62
2023/07/01 05:30:43;;;;;;;8.17;4.10;;;;;;;;;;5058104;28;20055;-62
2023/07/01 05:33:10;;;;;;;7.10;4.23;;;;;;;;;;5048267;28;20565;-62
2023/07/01 05:35:36;;;;;;;9.40;4.50;;;;;;;;;;5047777;28;20055;-62
2023/07/01 05:38:09;;;;;;;8.60;4.23;;;;;;;;;;5048733;28;20063;-62
2023/07/01 05:40:35;;;;;;;8.20;4.60;;;;;;;;;;5056524;28;20045;-62
2023/07/01 05:43:01;;;;;;;8.60;4.17;;;;;;;;;;5060001;28;20059;-63
2023/07/01 05:45:27;;;;;;;9.53;4.07;;;;;;;;;;5067609;28;20037;-62
2023/07/01 05:47:53;;;;;;;8.20;4.40;;;;;;;;;;5068275;28;20512;-62
2023/07/01 05:50:19;;;;;;;5.73;3.80;;;;;;;;;;5068030;28;20051;-62
2023/07/01 05:52:45;;;;;;;10.40;4.83;;;;;;;;;;5068075;28;20088;-63
2023/07/01 05:55:11;;;;;;;14.80;5.43;;;;;;;;;;5068287;28;20433;-62
2023/07/01 05:57:37;;;;;;;15.67;5.87;;;;;;;;;;5068216;28;20076;-62
2023/07/01 06:00:04;;;;;;;12.37;6.07;;;;;;;;;;5065663;28;20048;-62
2023/07/01 06:02:30;;;;;;;12.47;6.00;;;;;;;;;;5068292;28;20079;-62
2023/07/01 06:04:56;;;;;;;9.00;6.37;;;;;;;;;;5067964;28;20439;-62
2023/07/01 06:07:23;;;;;;;12.17;7.43;;;;;;;;;;5068242;28;20171;-63
2023/07/01 06:09:49;;;;;;;11.60;7.27;;;;;;;;;;5065717;28;20044;-63
2023/07/01 06:12:15;;;;;;;14.57;7.63;;;;;;;;;;5064937;28;20406;-64
2023/07/01 06:14:41;;;;;;;15.00;8.53;;;;;;;;;;5063011;28;20045;-64
2023/07/01 06:17:07;;;;;;;13.90;7.63;;;;;;;;;;5059874;28;20323;-64
2023/07/01 06:19:33;;;;;;;15.33;8.93;;;;;;;;;;5059198;28;20044;-64
2023/07/01 06:21:59;;;;;;;16.53;8.60;;;;;;;;;;5058633;28;20048;-65
2023/07/01 06:24:25;;;;;;;16.40;10.43;;;;;;;;;;5059332;28;20124;-65
2023/07/01 06:26:51;;;;;;;16.40;11.60;;;;;;;;;;5049126;28;20566;-65
2023/07/01 06:29:17;;;;;;;19.67;11.60;;;;;;;;;;5062471;28;20106;-65
2023/07/01 06:31:43;;;;;;;15.43;11.17;;;;;;;;;;5054364;28;20045;-65
2023/07/01 06:34:12;;;;;;;19.87;12.83;;;;;;;;;;5048949;28;20052;-65
2023/07/01 06:36:38;;;;;;;28.00;14.10;;;;;;;;;;5066933;28;20084;-65
2023/07/01 06:39:05;;;;;;;17.43;12.27;;;;;;;;;;5061415;28;20427;-64
2023/07/01 06:41:31;;;;;;;23.30;13.53;;;;;;;;;;5050340;28;20041;-65
2023/07/01 06:43:57;;;;;;;27.13;16.57;;;;;;;;;;5051256;28;20052;-64
2023/07/01 06:46:22;;;;;;;22.73;13.43;;;;;;;;;;5051029;28;20037;-64
2023/07/01 06:48:49;;;;;;;21.50;15.57;;;;;;;;;;5054945;28;20045;-65
2023/07/01 06:51:15;;;;;;;23.40;16.57;;;;;;;;;;5061373;28;20131;-64
2023/07/01 06:53:41;;;;;;;27.27;16.30;;;;;;;;;;5052079;28;20080;-65
2023/07/01 06:56:07;;;;;;;24.33;16.03;;;;;;;;;;5062696;28;20474;-64
2023/07/01 06:58:33;;;;;;;17.57;13.63;;;;;;;;;;5051139;28;20067;-64
2023/07/01 07:00:59;;;;;;;25.83;14.37;;;;;;;;;;5049914;28;20079;-65
2023/07/01 07:03:25;;;;;;;25.10;15.77;;;;;;;;;;5050883;28;20080;-64
2023/07/01 07:05:55;;;;;;;21.37;15.63;;;;;;;;;;5050786;28;20048;-64
2023/07/01 07:08:21;;;;;;;26.63;15.97;;;;;;;;;;5058153;28;20063;-64
2023/07/01 07:10:47;;;;;;;18.13;13.53;;;;;;;;;;5051437;28;20076;-64
2023/07/01 07:13:13;;;;;;;22.33;15.40;;;;;;;;;;5067917;28;20056;-63
2023/07/01 07:15:40;;;;;;;40.07;19.33;;;;;;;;;;5070760;28;20041;-64
2023/07/01 07:18:09;;;;;;;22.03;14.60;;;;;;;;;;5070756;28;20036;-64
2023/07/01 07:20:35;;;;;;;22.60;13.27;;;;;;;;;;5069880;28;20131;-64
2023/07/01 07:23:04;;;;;;;21.27;13.60;;;;;;;;;;5070420;28;20104;-63
2023/07/01 07:25:30;;;;;;;15.93;12.97;;;;;;;;;;5065427;28;20407;-64
2023/07/01 07:27:56;;;;;;;18.97;13.13;;;;;;;;;;5070422;28;20051;-63
2023/07/01 07:30:23;;;;;;;16.80;12.13;;;;;;;;;;5058029;28;20045;-64
2023/07/01 07:32:48;;;;;;;21.13;15.23;;;;;;;;;;5050323;28;20057;-64
2023/07/01 07:35:14;;;;;;;21.13;14.23;;;;;;;;;;5054474;28;20071;-64
2023/07/01 07:37:40;;;;;;;15.87;13.03;;;;;;;;;;5058106;28;20072;-64
2023/07/01 07:40:07;;;;;;;29.60;16.33;;;;;;;;;;5060785;28;20079;-65
2023/07/01 07:42:33;;;;;;;21.80;15.97;;;;;;;;;;5050314;28;20114;-64
2023/07/01 07:44:59;;;;;;;22.77;15.03;;;;;;;;;;5049733;28;20048;-64
2023/07/01 07:47:27;;;;;;;16.00;12.03;;;;;;;;;;5049773;28;20044;-64
2023/07/01 07:49:52;;;;;;;17.37;12.77;;;;;;;;;;5048074;28;20099;-64
2023/07/01 07:52:18;;;;;;;17.20;11.43;;;;;;;;;;5049692;28;20041;-64
2023/07/01 07:54:45;;;;;;;12.97;10.50;;;;;;;;;;5048852;28;20055;-65
2023/07/01 07:57:12;;;;;;;14.40;11.00;;;;;;;;;;5049411;28;20049;-64
2023/07/01 07:59:41;;;;;;;18.43;12.53;;;;;;;;;;5049481;28;20044;-64
2023/07/01 08:02:08;;;;;;;16.27;11.40;;;;;;;;;;5049462;28;20059;-65
2023/07/01 08:04:34;;;;;;;12.70;10.87;;;;;;;;;;5048964;28;20241;-65
2023/07/01 08:07:00;;;;;;;15.13;11.83;;;;;;;;;;5049326;28;20049;-65
2023/07/01 08:09:26;;;;;;;19.07;12.77;;;;;;;;;;5049087;28;20045;-65
2023/07/01 08:11:52;;;;;;;17.17;11.40;;;;;;;;;;5049350;28;20068;-65
2023/07/01 08:14:21;;;;;;;13.43;10.63;;;;;;;;;;5049189;28;20045;-65
2023/07/01 08:16:47;;;;;;;13.37;11.10;;;;;;;;;;5048937;28;20049;-65
2023/07/01 08:19:13;;;;;;;20.70;13.60;;;;;;;;;;5049033;28;20131;-65
2023/07/01 08:21:39;;;;;;;12.57;10.33;;;;;;;;;;5048730;28;20174;-65
2023/07/01 08:24:09;;;;;;;10.83;9.43;;;;;;;;;;5048914;28;20084;-65
2023/07/01 08:26:35;;;;;;;18.80;12.13;;;;;;;;;;5048802;28;20049;-65
2023/07/01 08:29:01;;;;;;;14.83;10.63;;;;;;;;;;5048984;28;20055;-64
2023/07/01 08:31:31;;;;;;;14.50;9.90;;;;;;;;;;5048821;28;20515;-65
2023/07/01 08:33:57;;;;;;;11.10;9.80;;;;;;;;;;5047043;28;20057;-65
2023/07/01 08:36:23;;;;;;;15.97;10.03;;;;;;;;;;5047500;28;20093;-65
2023/07/01 08:38:49;;;;;;;14.57;10.73;;;;;;;;;;5048601;28;20495;-65
2023/07/01 08:41:16;;;;;;;13.90;9.97;;;;;;;;;;5047540;28;20056;-65
2023/07/01 08:43:44;;;;;;;14.03;9.77;;;;;;;;;;5048741;28;20045;-65
2023/07/01 08:46:12;;;;;;;14.20;10.50;;;;;;;;;;5048368;28;20049;-65
2023/07/01 08:48:38;;;;;;;16.47;10.43;;;;;;;;;;5048622;28;20083;-65
2023/07/01 08:51:04;;;;;;;12.60;10.90;;;;;;;;;;5048498;28;20044;-65
2023/07/01 08:53:30;;;;;;;11.17;9.60;;;;;;;;;;5048719;28;20459;-65
2023/07/01 08:55:56;;;;;;;17.13;10.07;;;;;;;;;;5048126;28;20041;-65
2023/07/01 08:58:24;;;;;;;11.97;9.87;;;;;;;;;;5048280;28;20045;-65
2023/07/01 09:00:50;;;;;;;16.10;12.03;;;;;;;;;;5048483;28;20541;-64
2023/07/01 09:03:16;;;;;;;12.17;10.73;;;;;;;;;;5047945;28;20073;-65
2023/07/01 09:05:42;;;;;;;15.03;10.13;;;;;;;;;;5048325;28;20128;-64
2023/07/01 09:08:08;;;;;;;11.90;10.50;;;;;;;;;;5047716;28;20080;-65
2023/07/01 09:10:34;;;;;;;12.83;10.47;;;;;;;;;;5048159;28;20418;-65
2023/07/01 09:13:10;;;;;;;14.10;11.27;;;;;;;;;;5048134;28;20132;-64
2023/07/01 09:15:46;;;;;;;20.20;13.20;;;;;;;;;;5047728;28;20056;-63
2023/07/01 09:18:19;;;;;;;16.57;12.83;;;;;;;;;;5048030;28;20155;-63
2023/07/01 09:20:45;;;;;;;15.55;10.90;;;;;;;;;;5047883;28;20040;-63
2023/07/01 09:23:11;;;;;;;20.00;12.70;;;;;;;;;;5048099;28;20044;-64
2023/07/01 09:25:37;;;;;;;16.40;12.20;;;;;;;;;;5047814;28;20056;-63
2023/07/01 09:28:03;;;;;;;22.77;13.20;;;;;;;;;;5047818;28;20041;-64
2023/07/01 09:30:29;;;;;;;18.23;12.23;;;;;;;;;;5048161;28;20285;-64
2023/07/01 09:33:12;;;;;;;19.03;12.03;;;;;;;;;;5047737;28;20056;-65
2023/07/01 09:35:42;;;;;;;18.25;12.15;;;;;;;;;;5047810;28;20064;-64
2023/07/01 09:38:08;;;;;;;17.63;11.87;;;;;;;;;;5046322;28;20045;-64
2023/07/01 09:40:34;;;;;;;18.20;11.57;;;;;;;;;;5047828;28;20048;-64
2023/07/01 09:43:00;;;;;;;16.50;11.57;;;;;;;;;;5047838;28;20038;-64
2023/07/01 09:45:26;;;;;;;13.37;10.73;;;;;;;;;;5047654;28;20521;-64
2023/07/01 09:47:52;;;;;;;15.50;10.13;;;;;;;;;;5047780;28;20045;-64
2023/07/01 09:50:23;;;;;;;13.07;10.17;;;;;;;;;;5046092;28;20049;-64
2023/07/01 09:52:50;;;;;;;15.83;11.07;;;;;;;;;;5050315;28;20041;-64
2023/07/01 09:55:16;;;;;;;13.53;9.47;;;;;;;;;;5057195;28;20045;-64
2023/07/01 09:57:42;;;;;;;13.20;9.77;;;;;;;;;;5047252;28;20045;-64
2023/07/01 10:00:17;;;;;;;12.57;9.13;;;;;;;;;;5051353;28;20037;-64
2023/07/01 10:02:44;;;;;;;11.83;9.47;;;;;;;;;;5047372;28;20060;-64
2023/07/01 10:05:12;;;;;;;16.40;9.93;;;;;;;;;;5059962;28;20379;-64
2023/07/01 10:07:38;;;;;;;13.00;9.53;;;;;;;;;;5056771;28;20075;-64
2023/07/01 10:10:04;;;;;;;11.97;10.07;;;;;;;;;;5064630;28;20609;-65
2023/07/01 10:12:30;;;;;;;13.50;9.20;;;;;;;;;;5059551;28;20095;-64
2023/07/01 10:14:58;;;;;;;16.57;10.77;;;;;;;;;;5051294;28;20443;-64
2023/07/01 10:17:44;;;;;;;14.90;9.40;;;;;;;;;;5071420;28;20458;-64
2023/07/01 10:20:26;;;;;;;17.03;10.53;;;;;;;;;;5066437;28;20108;-64
2023/07/01 10:22:59;;;;;;;10.27;8.60;;;;;;;;;;5051796;28;20049;-63
2023/07/01 10:25:32;;;;;;;10.82;8.60;;;;;;;;;;5051531;28;20045;-63
2023/07/01 10:27:59;;;;;;;10.70;8.18;;;;;;;;;;5066145;28;20096;-63
2023/07/01 10:30:25;;;;;;;10.23;8.23;;;;;;;;;;5053238;28;20068;-64
2023/07/01 10:32:51;;;;;;;9.73;8.10;;;;;;;;;;5049666;28;20057;-64
2023/07/01 10:35:17;;;;;;;11.03;7.80;;;;;;;;;;5061665;28;20451;-63
2023/07/01 10:38:04;;;;;;;13.50;8.43;;;;;;;;;;5059497;28;20056;-63
2023/07/01 10:40:29;;;;;;;9.07;7.50;;;;;;;;;;5053641;28;20467;-64
2023/07/01 10:43:14;;;;;;;11.43;7.37;;;;;;;;;;5049817;28;20107;-63
2023/07/01 10:45:41;;;;;;;9.20;7.40;;;;;;;;;;5054710;28;20090;-63
2023/07/01 10:48:07;;;;;;;9.47;7.63;;;;;;;;;;5065986;28;20060;-64
2023/07/01 10:50:33;;;;;;;8.73;6.70;;;;;;;;;;5065871;28;20051;-63
2023/07/01 10:52:59;;;;;;;9.50;6.57;;;;;;;;;;5052817;28;20060;-63
2023/07/01 10:55:35;;;;;;;7.13;6.37;;;;;;;;;;5050767;28;20206;-63
2023/07/01 10:58:18;;;;;;;9.63;6.70;;;;;;;;;;5050684;28;20116;-63
2023/07/01 11:00:45;;;;;;;7.77;6.80;;;;;;;;;;5049292;28;20103;-64
2023/07/01 11:03:31;;;;;;;12.43;7.13;;;;;;;;;;5050786;28;20045;-65
2023/07/01 11:06:01;;;;;;;10.50;7.13;;;;;;;;;;5055298;28;20053;-65
2023/07/01 11:08:27;;;;;;;7.43;6.57;;;;;;;;;;5050682;28;20128;-64
2023/07/01 11:10:54;;;;;;;8.47;6.73;;;;;;;;;;5050378;28;20664;-64
2023/07/01 11:13:20;;;;;;;8.50;5.53;;;;;;;;;;5050430;28;20072;-64
2023/07/01 11:16:05;;;;;;;7.13;5.93;;;;;;;;;;5055764;28;20044;-64
2023/07/01 11:18:44;;;;;;;6.40;5.30;;;;;;;;;;5050750;28;20072;-64
2023/07/01 11:21:11;;;;;;;8.20;6.47;;;;;;;;;;5050292;28;20068;-64
2023/07/01 11:23:38;;;;;;;8.00;6.00;;;;;;;;;;5060283;28;20133;-64
2023/07/01 11:26:04;;;;;;;9.17;6.80;;;;;;;;;;5069521;28;20040;-63
2023/07/01 11:28:36;;;;;;;11.40;7.43;;;;;;;;;;5069863;28;20049;-63
2023/07/01 11:31:16;;;;;;;17.30;8.75;;;;;;;;;;5068771;28;20094;-63
2023/07/01 11:34:10;;;;;;;18.70;9.50;;;;;;;;;;5068823;28;20060;-63
2023/07/01 11:36:38;;;;;;;20.07;10.13;;;;;;;;;;5068943;28;20110;-63
2023/07/01 11:39:05;;;;;;;11.60;8.13;;;;;;;;;;5070010;28;20525;-63
2023/07/01 11:41:31;;;;;;;11.93;8.10;;;;;;;;;;5064812;28;20459;-63
2023/07/01 11:43:57;;;;;;;19.87;9.23;;;;;;;;;;5069930;28;20043;-63
2023/07/01 11:46:31;;;;;;;14.87;9.70;;;;;;;;;;5069688;28;20037;-63
2023/07/01 11:48:57;;;;;;;10.80;8.37;;;;;;;;;;5069652;28;20410;-63
2023/07/01 11:51:38;;;;;;;14.37;9.10;;;;;;;;;;5069729;28;20330;-63
2023/07/01 11:54:04;;;;;;;10.60;7.23;;;;;;;;;;5067453;28;20044;-63
2023/07/01 11:56:30;;;;;;;9.37;6.17;;;;;;;;;;5052993;28;20521;-63
2023/07/01 11:58:56;;;;;;;10.47;7.30;;;;;;;;;;5054499;28;20044;-63
2023/07/01 12:01:26;;;;;;;10.90;7.27;;;;;;;;;;5049791;28;20127;-63
2023/07/01 12:03:53;;;;;;;10.97;6.63;;;;;;;;;;5062046;28;20397;-63
2023/07/01 12:06:22;;;;;;;10.10;6.20;;;;;;;;;;5069716;28;20044;-64
2023/07/01 12:08:52;;;;;;;12.93;6.07;;;;;;;;;;5066476;28;20519;-63
2023/07/01 12:11:18;;;;;;;10.20;5.13;;;;;;;;;;5051677;28;20131;-63
2023/07/01 12:13:44;;;;;;;12.37;7.17;;;;;;;;;;5048839;28;20564;-63
2023/07/01 12:16:10;;;;;;;22.03;8.40;;;;;;;;;;5049340;28;20052;-63
2023/07/01 12:18:36;;;;;;;16.13;7.10;;;;;;;;;;5049064;28;20045;-63
2023/07/01 12:21:02;;;;;;;9.83;5.83;;;;;;;;;;5048720;28;20563;-63
2023/07/01 12:23:28;;;;;;;12.70;7.10;;;;;;;;;;5049801;28;20037;-63
2023/07/01 12:25:54;;;;;;;9.53;6.67;;;;;;;;;;5054462;28;20051;-63
2023/07/01 12:28:20;;;;;;;5.90;4.73;;;;;;;;;;5069191;28;20815;-62
2023/07/01 12:30:47;;;;;;;12.93;5.87;;;;;;;;;;5056980;28;20048;-63
2023/07/01 12:33:13;;;;;;;8.47;5.50;;;;;;;;;;5048783;28;20057;-63
2023/07/01 12:35:40;;;;;;;7.90;6.03;;;;;;;;;;5048921;28;20083;-63
2023/07/01 12:38:08;;;;;;;11.00;7.07;;;;;;;;;;5067318;28;20059;-64
2023/07/01 12:40:34;;;;;;;10.67;7.23;;;;;;;;;;5068755;28;20044;-64
2023/07/01 12:43:00;;;;;;;12.33;7.17;;;;;;;;;;5068549;28;20164;-64
2023/07/01 12:45:26;;;;;;;11.47;7.87;;;;;;;;;;5068782;28;20520;-64
2023/07/01 12:47:52;;;;;;;11.97;7.77;;;;;;;;;;5068619;28;20044;-64
2023/07/01 12:50:18;;;;;;;11.57;7.60;;;;;;;;;;5068738;28;20123;-64
2023/07/01 12:52:43;;;;;;;11.10;8.47;;;;;;;;;;5068014;28;20414;-64
2023/07/01 12:55:10;;;;;;;9.50;6.70;;;;;;;;;;5048856;28;20052;-64
2023/07/01 12:57:36;;;;;;;12.00;8.40;;;;;;;;;;5048602;28;20045;-64
2023/07/01 13:00:06;;;;;;;9.70;6.50;;;;;;;;;;5048452;28;20076;-64
2023/07/01 13:02:32;;;;;;;11.37;6.60;;;;;;;;;;5048074;28;20414;-64
2023/07/01 13:05:03;;;;;;;8.10;6.10;;;;;;;;;;5049525;28;20052;-63
2023/07/01 13:07:29;;;;;;;10.57;6.80;;;;;;;;;;5063984;28;20072;-65
2023/07/01 13:09:58;;;;;;;20.93;7.90;;;;;;;;;;5061793;28;20048;-64
2023/07/01 13:12:25;;;;;;;14.17;7.33;;;;;;;;;;5059594;28;20052;-64
2023/07/01 13:14:51;;;;;;;10.57;6.50;;;;;;;;;;5063729;28;20083;-63
2023/07/01 13:17:18;;;;;;;11.23;6.57;;;;;;;;;;5052304;28;22146;-63
2023/07/01 13:19:45;;;;;;;12.77;5.40;;;;;;;;;;5053372;28;20139;-63
2023/07/01 13:22:13;;;;;;;8.70;6.47;;;;;;;;;;5055858;28;20060;-63
2023/07/01 13:24:41;;;;;;;6.47;5.77;;;;;;;;;;5061438;28;20562;-63
2023/07/01 13:27:09;;;;;;;10.83;7.23;;;;;;;;;;5068780;28;20127;-63
2023/07/01 13:29:35;;;;;;;12.30;7.30;;;;;;;;;;5068211;28;20044;-63
2023/07/01 13:32:04;;;;;;;9.03;6.70;;;;;;;;;;5068536;28;20517;-63
2023/07/01 13:34:31;;;;;;;11.33;7.80;;;;;;;;;;5068281;28;20056;-64
2023/07/01 13:36:58;;;;;;;10.83;7.27;;;;;;;;;;5058321;28;20511;-64
2023/07/01 13:39:42;;;;;;;9.27;6.90;;;;;;;;;;5058669;28;20044;-63
2023/07/01 13:42:09;;;;;;;11.43;7.33;;;;;;;;;;5053050;28;20049;-64
2023/07/01 13:44:38;;;;;;;8.77;6.47;;;;;;;;;;5047932;28;20554;-64
2023/07/01 13:47:06;;;;;;;9.97;6.83;;;;;;;;;;5058672;28;20033;-64
2023/07/01 13:49:32;;;;;;;9.67;6.53;;;;;;;;;;5069416;28;20045;-64
2023/07/01 13:51:58;;;;;;;14.17;8.10;;;;;;;;;;5054837;28;20044;-64
2023/07/01 13:54:25;;;;;;;8.63;7.60;;;;;;;;;;5052417;28;20175;-65
2023/07/01 13:56:52;;;;;;;8.90;7.00;;;;;;;;;;5063136;28;20529;-64
2023/07/01 13:59:19;;;;;;;12.17;8.10;;;;;;;;;;5072474;28;20050;-64
2023/07/01 14:02:05;;;;;;;9.00;7.00;;;;;;;;;;5054763;28;20037;-64
2023/07/01 14:04:32;;;;;;;7.00;6.30;;;;;;;;;;5051653;28;20060;-64
2023/07/01 14:07:02;;;;;;;7.63;6.60;;;;;;;;;;5052374;28;20487;-64
2023/07/01 14:09:29;;;;;;;8.97;6.80;;;;;;;;;;5050932;28;20060;-64
2023/07/01 14:11:55;;;;;;;7.97;5.37;;;;;;;;;;5051076;28;20566;-64
2023/07/01 14:14:25;;;;;;;9.23;5.97;;;;;;;;;;5051762;28;20554;-63
2023/07/01 14:16:52;;;;;;;9.27;5.90;;;;;;;;;;5051809;28;20102;-63
2023/07/01 14:19:18;;;;;;;7.73;5.23;;;;;;;;;;5052034;28;20044;-63
2023/07/01 14:21:46;;;;;;;5.97;4.10;;;;;;;;;;5057753;28;20455;-63
2023/07/01 14:24:23;;;;;;;6.63;4.20;;;;;;;;;;5071554;28;20164;-63
2023/07/01 14:26:50;;;;;;;5.53;3.60;;;;;;;;;;5069528;28;20474;-64
2023/07/01 14:29:16;;;;;;;5.73;4.60;;;;;;;;;;5056131;28;20041;-64
2023/07/01 14:31:45;;;;;;;9.37;5.53;;;;;;;;;;5067722;28;20059;-63
2023/07/01 14:34:11;;;;;;;8.90;4.93;;;;;;;;;;5071778;28;20533;-64
2023/07/01 14:36:42;;;;;;;8.30;5.67;;;;;;;;;;5059063;28;20250;-64